Avery, Idaho
Current Conditions -  °F | °C
As of 12:44 AM on Friday 28 Nov 2014 (Local Time) from KMLP Reporting Station
Moderate Rain Moderate Rain  
Wind Chill: 28°   Ceiling: 300
Heat Index: 36°   Visibility: 1.2mi
Dew Point: 35°   Wind: 12mph
Humidity: 97%   Direction: 220°SW
Pressure: 29.72"   Gusts: 25mph
Location:  47.25°N, 115.81°W
Report Text: KMLP 280844Z AUTO 22010G22KT 1 1/4SM RA BR OVC003 02/02 A2972 RMK AO2 PK WND 22028/0825 P0006 T00220017
Loading
Personal Weather Stations






























Interactive Weather Map New forecast layout! Learn more

10-Day Weather Forecast

Advertisements
Track Severe Weather on mobile